sensor_id;sensor_type;location;lat;lon;timestamp;P1;durP1;ratioP1;P2;durP2;ratioP2
3207;SDS011;1616;52.394;9.756;2023-04-24T00:00:13;0.90;;;0.70;;
3207;SDS011;1616;52.394;9.756;2023-04-24T00:02:40;1.00;;;0.90;;
3207;SDS011;1616;52.394;9.756;2023-04-24T00:05:10;0.90;;;0.73;;
3207;SDS011;1616;52.394;9.756;2023-04-24T00:07:35;2.70;;;0.87;;
3207;SDS011;1616;52.394;9.756;2023-04-24T00:10:01;0.90;;;0.70;;
3207;SDS011;1616;52.394;9.756;2023-04-24T00:12:26;0.80;;;0.60;;
3207;SDS011;1616;52.394;9.756;2023-04-24T00:14:52;1.97;;;0.73;;
3207;SDS011;1616;52.394;9.756;2023-04-24T00:17:18;1.50;;;0.77;;
3207;SDS011;1616;52.394;9.756;2023-04-24T00:19:47;0.93;;;0.80;;
3207;SDS011;1616;52.394;9.756;2023-04-24T00:22:14;3.43;;;0.70;;
3207;SDS011;1616;52.394;9.756;2023-04-24T00:24:39;1.00;;;0.80;;
3207;SDS011;1616;52.394;9.756;2023-04-24T00:27:05;0.80;;;0.67;;
3207;SDS011;1616;52.394;9.756;2023-04-24T00:29:31;1.20;;;0.70;;
3207;SDS011;1616;52.394;9.756;2023-04-24T00:31:57;2.73;;;0.70;;
3207;SDS011;1616;52.394;9.756;2023-04-24T00:34:23;1.10;;;0.70;;
3207;SDS011;1616;52.394;9.756;2023-04-24T00:36:49;0.80;;;0.60;;
3207;SDS011;1616;52.394;9.756;2023-04-24T00:39:20;0.97;;;0.87;;
3207;SDS011;1616;52.394;9.756;2023-04-24T00:41:46;1.10;;;0.77;;
3207;SDS011;1616;52.394;9.756;2023-04-24T00:44:13;1.00;;;0.80;;
3207;SDS011;1616;52.394;9.756;2023-04-24T00:46:40;1.60;;;1.03;;
3207;SDS011;1616;52.394;9.756;2023-04-24T00:49:05;0.93;;;0.80;;
3207;SDS011;1616;52.394;9.756;2023-04-24T00:51:31;1.00;;;0.70;;
3207;SDS011;1616;52.394;9.756;2023-04-24T00:53:58;1.40;;;0.80;;
3207;SDS011;1616;52.394;9.756;2023-04-24T00:56:24;1.33;;;0.80;;
3207;SDS011;1616;52.394;9.756;2023-04-24T00:58:50;1.40;;;0.80;;
3207;SDS011;1616;52.394;9.756;2023-04-24T01:01:17;0.80;;;0.70;;
3207;SDS011;1616;52.394;9.756;2023-04-24T01:03:46;2.90;;;0.77;;
3207;SDS011;1616;52.394;9.756;2023-04-24T01:06:12;3.67;;;0.80;;
3207;SDS011;1616;52.394;9.756;2023-04-24T01:08:39;2.13;;;0.80;;
3207;SDS011;1616;52.394;9.756;2023-04-24T01:11:05;4.60;;;0.80;;
3207;SDS011;1616;52.394;9.756;2023-04-24T01:13:31;1.30;;;0.70;;
3207;SDS011;1616;52.394;9.756;2023-04-24T01:15:57;1.20;;;0.83;;
3207;SDS011;1616;52.394;9.756;2023-04-24T01:18:23;0.90;;;0.70;;
3207;SDS011;1616;52.394;9.756;2023-04-24T01:20:50;1.20;;;0.80;;
3207;SDS011;1616;52.394;9.756;2023-04-24T01:23:18;1.00;;;0.73;;
3207;SDS011;1616;52.394;9.756;2023-04-24T01:25:44;1.00;;;0.80;;
3207;SDS011;1616;52.394;9.756;2023-04-24T01:28:10;1.10;;;0.83;;
3207;SDS011;1616;52.394;9.756;2023-04-24T01:30:36;0.90;;;0.77;;
3207;SDS011;1616;52.394;9.756;2023-04-24T01:33:01;0.90;;;0.80;;
3207;SDS011;1616;52.394;9.756;2023-04-24T01:35:27;1.27;;;0.80;;
3207;SDS011;1616;52.394;9.756;2023-04-24T01:37:53;0.90;;;0.80;;
3207;SDS011;1616;52.394;9.756;2023-04-24T01:40:19;1.00;;;0.70;;
3207;SDS011;1616;52.394;9.756;2023-04-24T01:42:45;1.00;;;0.83;;
3207;SDS011;1616;52.394;9.756;2023-04-24T01:45:11;0.90;;;0.80;;
3207;SDS011;1616;52.394;9.756;2023-04-24T01:47:38;1.00;;;0.70;;
3207;SDS011;1616;52.394;9.756;2023-04-24T01:50:05;1.40;;;0.73;;
3207;SDS011;1616;52.394;9.756;2023-04-24T01:52:31;1.00;;;0.80;;
3207;SDS011;1616;52.394;9.756;2023-04-24T01:55:01;0.90;;;0.70;;
3207;SDS011;1616;52.394;9.756;2023-04-24T01:57:29;1.20;;;0.90;;
3207;SDS011;1616;52.394;9.756;2023-04-24T01:59:55;0.90;;;0.70;;
3207;SDS011;1616;52.394;9.756;2023-04-24T02:02:21;1.37;;;0.70;;
3207;SDS011;1616;52.394;9.756;2023-04-24T02:04:50;1.10;;;0.80;;
3207;SDS011;1616;52.394;9.756;2023-04-24T02:07:16;1.10;;;0.90;;
3207;SDS011;1616;52.394;9.756;2023-04-24T02:09:41;1.00;;;0.90;;
3207;SDS011;1616;52.394;9.756;2023-04-24T02:12:07;1.00;;;0.80;;
3207;SDS011;1616;52.394;9.756;2023-04-24T02:14:33;0.90;;;0.70;;
3207;SDS011;1616;52.394;9.756;2023-04-24T02:16:58;1.20;;;0.70;;
3207;SDS011;1616;52.394;9.756;2023-04-24T02:19:24;1.10;;;0.80;;
3207;SDS011;1616;52.394;9.756;2023-04-24T02:21:49;1.43;;;0.80;;
3207;SDS011;1616;52.394;9.756;2023-04-24T02:24:15;1.70;;;0.97;;
3207;SDS011;1616;52.394;9.756;2023-04-24T02:26:41;0.90;;;0.73;;
3207;SDS011;1616;52.394;9.756;2023-04-24T02:29:07;1.23;;;1.00;;
3207;SDS011;1616;52.394;9.756;2023-04-24T02:31:32;1.10;;;0.70;;
3207;SDS011;1616;52.394;9.756;2023-04-24T02:33:58;1.97;;;0.90;;
3207;SDS011;1616;52.394;9.756;2023-04-24T02:36:24;1.33;;;0.70;;
3207;SDS011;1616;52.394;9.756;2023-04-24T02:38:50;0.83;;;0.67;;
3207;SDS011;1616;52.394;9.756;2023-04-24T02:41:15;0.90;;;0.80;;
3207;SDS011;1616;52.394;9.756;2023-04-24T02:43:41;0.87;;;0.80;;
3207;SDS011;1616;52.394;9.756;2023-04-24T02:46:07;1.00;;;0.90;;
3207;SDS011;1616;52.394;9.756;2023-04-24T02:48:32;0.90;;;0.70;;
3207;SDS011;1616;52.394;9.756;2023-04-24T02:50:58;0.87;;;0.60;;
3207;SDS011;1616;52.394;9.756;2023-04-24T02:53:24;0.97;;;0.80;;
3207;SDS011;1616;52.394;9.756;2023-04-24T02:55:50;1.23;;;0.70;;
3207;SDS011;1616;52.394;9.756;2023-04-24T02:58:15;1.00;;;0.73;;
3207;SDS011;1616;52.394;9.756;2023-04-24T03:00:42;1.00;;;0.87;;
3207;SDS011;1616;52.394;9.756;2023-04-24T03:03:08;1.40;;;0.80;;
3207;SDS011;1616;52.394;9.756;2023-04-24T03:05:34;4.30;;;0.80;;
3207;SDS011;1616;52.394;9.756;2023-04-24T03:08:00;1.20;;;0.80;;
3207;SDS011;1616;52.394;9.756;2023-04-24T03:10:27;0.80;;;0.60;;
3207;SDS011;1616;52.394;9.756;2023-04-24T03:12:52;1.00;;;0.70;;
3207;SDS011;1616;52.394;9.756;2023-04-24T03:15:19;1.03;;;0.70;;
3207;SDS011;1616;52.394;9.756;2023-04-24T03:17:45;1.30;;;0.77;;
3207;SDS011;1616;52.394;9.756;2023-04-24T03:20:11;0.90;;;0.63;;
3207;SDS011;1616;52.394;9.756;2023-04-24T03:22:37;1.10;;;0.63;;
3207;SDS011;1616;52.394;9.756;2023-04-24T03:25:03;0.90;;;0.60;;
3207;SDS011;1616;52.394;9.756;2023-04-24T03:27:30;0.90;;;0.70;;
3207;SDS011;1616;52.394;9.756;2023-04-24T03:29:55;2.50;;;0.70;;
3207;SDS011;1616;52.394;9.756;2023-04-24T03:32:21;0.90;;;0.60;;
3207;SDS011;1616;52.394;9.756;2023-04-24T03:34:50;0.87;;;0.70;;
3207;SDS011;1616;52.394;9.756;2023-04-24T03:37:16;1.00;;;0.80;;
3207;SDS011;1616;52.394;9.756;2023-04-24T03:39:42;1.30;;;0.70;;
3207;SDS011;1616;52.394;9.756;2023-04-24T03:42:08;0.80;;;0.77;;
3207;SDS011;1616;52.394;9.756;2023-04-24T03:44:34;1.00;;;0.70;;
3207;SDS011;1616;52.394;9.756;2023-04-24T03:47:00;0.80;;;0.70;;
3207;SDS011;1616;52.394;9.756;2023-04-24T03:49:26;1.00;;;0.70;;
3207;SDS011;1616;52.394;9.756;2023-04-24T03:51:52;0.83;;;0.60;;
3207;SDS011;1616;52.394;9.756;2023-04-24T03:54:18;0.90;;;0.60;;
3207;SDS011;1616;52.394;9.756;2023-04-24T03:56:44;0.80;;;0.60;;
3207;SDS011;1616;52.394;9.756;2023-04-24T03:59:10;0.90;;;0.70;;
3207;SDS011;1616;52.394;9.756;2023-04-24T04:01:36;1.00;;;0.80;;
3207;SDS011;1616;52.394;9.756;2023-04-24T04:04:08;0.90;;;0.80;;
3207;SDS011;1616;52.394;9.756;2023-04-24T04:06:33;2.27;;;0.80;;
3207;SDS011;1616;52.394;9.756;2023-04-24T04:09:01;2.20;;;0.60;;
3207;SDS011;1616;52.394;9.756;2023-04-24T04:11:27;1.00;;;0.73;;
3207;SDS011;1616;52.394;9.756;2023-04-24T04:13:52;1.00;;;0.60;;
3207;SDS011;1616;52.394;9.756;2023-04-24T04:16:18;0.90;;;0.70;;
3207;SDS011;1616;52.394;9.756;2023-04-24T04:18:44;0.83;;;0.60;;
3207;SDS011;1616;52.394;9.756;2023-04-24T04:21:10;1.00;;;0.70;;
3207;SDS011;1616;52.394;9.756;2023-04-24T04:23:36;1.00;;;0.70;;
3207;SDS011;1616;52.394;9.756;2023-04-24T04:26:02;0.87;;;0.70;;
3207;SDS011;1616;52.394;9.756;2023-04-24T04:28:29;1.20;;;0.77;;
3207;SDS011;1616;52.394;9.756;2023-04-24T04:30:57;0.80;;;0.60;;
3207;SDS011;1616;52.394;9.756;2023-04-24T04:33:25;1.03;;;0.77;;
3207;SDS011;1616;52.394;9.756;2023-04-24T04:35:52;1.00;;;0.70;;
3207;SDS011;1616;52.394;9.756;2023-04-24T04:38:18;1.33;;;0.80;;
3207;SDS011;1616;52.394;9.756;2023-04-24T04:40:44;2.73;;;0.70;;
3207;SDS011;1616;52.394;9.756;2023-04-24T04:43:10;1.07;;;0.70;;
3207;SDS011;1616;52.394;9.756;2023-04-24T04:45:37;8.00;;;0.83;;
3207;SDS011;1616;52.394;9.756;2023-04-24T04:48:03;1.10;;;0.70;;
3207;SDS011;1616;52.394;9.756;2023-04-24T04:50:29;1.00;;;0.70;;
3207;SDS011;1616;52.394;9.756;2023-04-24T04:52:55;1.07;;;0.80;;
3207;SDS011;1616;52.394;9.756;2023-04-24T04:55:21;1.97;;;0.80;;
3207;SDS011;1616;52.394;9.756;2023-04-24T04:57:47;0.90;;;0.80;;
3207;SDS011;1616;52.394;9.756;2023-04-24T05:00:12;1.47;;;0.77;;
3207;SDS011;1616;52.394;9.756;2023-04-24T05:02:39;0.80;;;0.63;;
3207;SDS011;1616;52.394;9.756;2023-04-24T05:05:05;1.40;;;0.70;;
3207;SDS011;1616;52.394;9.756;2023-04-24T05:07:32;1.20;;;0.63;;
3207;SDS011;1616;52.394;9.756;2023-04-24T05:09:58;1.00;;;0.70;;
3207;SDS011;1616;52.394;9.756;2023-04-24T05:12:23;0.97;;;0.70;;
3207;SDS011;1616;52.394;9.756;2023-04-24T05:14:49;1.00;;;0.77;;
3207;SDS011;1616;52.394;9.756;2023-04-24T05:17:15;1.20;;;0.60;;
3207;SDS011;1616;52.394;9.756;2023-04-24T05:19:41;0.93;;;0.70;;
3207;SDS011;1616;52.394;9.756;2023-04-24T05:22:07;0.90;;;0.70;;
3207;SDS011;1616;52.394;9.756;2023-04-24T05:24:35;0.80;;;0.60;;
3207;SDS011;1616;52.394;9.756;2023-04-24T05:27:01;1.20;;;0.70;;
3207;SDS011;1616;52.394;9.756;2023-04-24T05:29:27;0.90;;;0.60;;
3207;SDS011;1616;52.394;9.756;2023-04-24T05:31:56;2.97;;;0.60;;
3207;SDS011;1616;52.394;9.756;2023-04-24T05:34:21;1.80;;;0.70;;
3207;SDS011;1616;52.394;9.756;2023-04-24T05:36:47;1.10;;;0.60;;
3207;SDS011;1616;52.394;9.756;2023-04-24T05:39:13;1.00;;;0.70;;
3207;SDS011;1616;52.394;9.756;2023-04-24T05:41:41;1.00;;;0.70;;
3207;SDS011;1616;52.394;9.756;2023-04-24T05:44:06;0.80;;;0.60;;
3207;SDS011;1616;52.394;9.756;2023-04-24T05:46:32;1.10;;;0.60;;
3207;SDS011;1616;52.394;9.756;2023-04-24T05:48:57;1.63;;;0.77;;
3207;SDS011;1616;52.394;9.756;2023-04-24T05:51:23;0.93;;;0.80;;
3207;SDS011;1616;52.394;9.756;2023-04-24T05:53:49;4.03;;;0.83;;
3207;SDS011;1616;52.394;9.756;2023-04-24T05:56:14;1.87;;;0.60;;
3207;SDS011;1616;52.394;9.756;2023-04-24T05:58:41;3.67;;;0.80;;
3207;SDS011;1616;52.394;9.756;2023-04-24T06:01:06;3.40;;;0.80;;
3207;SDS011;1616;52.394;9.756;2023-04-24T06:03:33;1.10;;;0.80;;
3207;SDS011;1616;52.394;9.756;2023-04-24T06:05:59;1.77;;;1.00;;
3207;SDS011;1616;52.394;9.756;2023-04-24T06:08:25;2.53;;;1.00;;
3207;SDS011;1616;52.394;9.756;2023-04-24T06:10:51;2.50;;;1.07;;
3207;SDS011;1616;52.394;9.756;2023-04-24T06:13:17;3.03;;;0.97;;
3207;SDS011;1616;52.394;9.756;2023-04-24T06:15:43;4.50;;;0.90;;
3207;SDS011;1616;52.394;9.756;2023-04-24T06:18:10;1.40;;;1.10;;
3207;SDS011;1616;52.394;9.756;2023-04-24T06:20:35;2.27;;;1.00;;
3207;SDS011;1616;52.394;9.756;2023-04-24T06:23:01;2.50;;;1.00;;
3207;SDS011;1616;52.394;9.756;2023-04-24T06:25:27;1.27;;;1.00;;
3207;SDS011;1616;52.394;9.756;2023-04-24T06:27:53;1.10;;;0.93;;
3207;SDS011;1616;52.394;9.756;2023-04-24T06:30:20;1.07;;;0.90;;
3207;SDS011;1616;52.394;9.756;2023-04-24T06:32:45;5.90;;;0.90;;
3207;SDS011;1616;52.394;9.756;2023-04-24T06:35:11;1.47;;;1.10;;
3207;SDS011;1616;52.394;9.756;2023-04-24T06:37:38;1.73;;;1.00;;
3207;SDS011;1616;52.394;9.756;2023-04-24T06:40:07;3.97;;;1.00;;
3207;SDS011;1616;52.394;9.756;2023-04-24T06:42:33;4.20;;;0.90;;
3207;SDS011;1616;52.394;9.756;2023-04-24T06:45:00;1.40;;;1.30;;
3207;SDS011;1616;52.394;9.756;2023-04-24T06:47:26;3.97;;;1.10;;
3207;SDS011;1616;52.394;9.756;2023-04-24T06:49:51;1.40;;;1.30;;
3207;SDS011;1616;52.394;9.756;2023-04-24T06:52:18;2.17;;;1.20;;
3207;SDS011;1616;52.394;9.756;2023-04-24T06:54:44;1.57;;;1.43;;
3207;SDS011;1616;52.394;9.756;2023-04-24T06:57:10;1.80;;;1.70;;
3207;SDS011;1616;52.394;9.756;2023-04-24T06:59:36;3.53;;;1.50;;
3207;SDS011;1616;52.394;9.756;2023-04-24T07:02:02;5.80;;;1.70;;
3207;SDS011;1616;52.394;9.756;2023-04-24T07:04:28;4.00;;;1.80;;
3207;SDS011;1616;52.394;9.756;2023-04-24T07:06:54;2.10;;;1.90;;
3207;SDS011;1616;52.394;9.756;2023-04-24T07:09:23;6.60;;;2.17;;
3207;SDS011;1616;52.394;9.756;2023-04-24T07:11:50;2.00;;;1.80;;
3207;SDS011;1616;52.394;9.756;2023-04-24T07:14:16;3.70;;;2.10;;
3207;SDS011;1616;52.394;9.756;2023-04-24T07:16:42;8.00;;;3.50;;
3207;SDS011;1616;52.394;9.756;2023-04-24T07:19:08;4.83;;;2.90;;
3207;SDS011;1616;52.394;9.756;2023-04-24T07:21:34;3.70;;;2.90;;
3207;SDS011;1616;52.394;9.756;2023-04-24T07:24:00;3.30;;;3.10;;
3207;SDS011;1616;52.394;9.756;2023-04-24T07:26:26;3.00;;;2.80;;
3207;SDS011;1616;52.394;9.756;2023-04-24T07:28:53;8.30;;;2.67;;
3207;SDS011;1616;52.394;9.756;2023-04-24T07:31:19;3.30;;;3.10;;
3207;SDS011;1616;52.394;9.756;2023-04-24T07:33:46;4.30;;;3.07;;
3207;SDS011;1616;52.394;9.756;2023-04-24T07:36:11;3.50;;;2.83;;
3207;SDS011;1616;52.394;9.756;2023-04-24T07:38:41;3.40;;;3.20;;
3207;SDS011;1616;52.394;9.756;2023-04-24T07:41:08;2.50;;;2.30;;
3207;SDS011;1616;52.394;9.756;2023-04-24T07:43:34;3.10;;;2.80;;
3207;SDS011;1616;52.394;9.756;2023-04-24T07:46:00;3.23;;;2.50;;
3207;SDS011;1616;52.394;9.756;2023-04-24T07:48:25;3.30;;;3.10;;
3207;SDS011;1616;52.394;9.756;2023-04-24T07:50:51;2.43;;;2.33;;
3207;SDS011;1616;52.394;9.756;2023-04-24T07:53:18;3.60;;;3.40;;
3207;SDS011;1616;52.394;9.756;2023-04-24T07:55:43;4.77;;;4.57;;
3207;SDS011;1616;52.394;9.756;2023-04-24T07:58:10;5.67;;;5.30;;
3207;SDS011;1616;52.394;9.756;2023-04-24T08:00:36;4.37;;;4.17;;
3207;SDS011;1616;52.394;9.756;2023-04-24T08:03:02;4.23;;;3.80;;
3207;SDS011;1616;52.394;9.756;2023-04-24T08:05:27;4.70;;;4.30;;
3207;SDS011;1616;52.394;9.756;2023-04-24T08:07:54;4.80;;;4.50;;
3207;SDS011;1616;52.394;9.756;2023-04-24T08:10:23;5.17;;;4.97;;
3207;SDS011;1616;52.394;9.756;2023-04-24T08:12:49;4.93;;;4.53;;
3207;SDS011;1616;52.394;9.756;2023-04-24T08:15:15;5.53;;;5.23;;
3207;SDS011;1616;52.394;9.756;2023-04-24T08:17:41;4.80;;;4.60;;
3207;SDS011;1616;52.394;9.756;2023-04-24T08:20:07;5.07;;;4.77;;
3207;SDS011;1616;52.394;9.756;2023-04-24T08:22:38;4.93;;;4.63;;
3207;SDS011;1616;52.394;9.756;2023-04-24T08:25:05;4.97;;;4.73;;
3207;SDS011;1616;52.394;9.756;2023-04-24T08:27:31;6.20;;;5.70;;
3207;SDS011;1616;52.394;9.756;2023-04-24T08:29:57;6.17;;;5.87;;
3207;SDS011;1616;52.394;9.756;2023-04-24T08:32:24;5.13;;;4.73;;
3207;SDS011;1616;52.394;9.756;2023-04-24T08:34:53;4.70;;;4.43;;
3207;SDS011;1616;52.394;9.756;2023-04-24T08:37:18;5.43;;;4.93;;
3207;SDS011;1616;52.394;9.756;2023-04-24T08:39:44;4.90;;;4.60;;
3207;SDS011;1616;52.394;9.756;2023-04-24T08:42:10;5.53;;;5.10;;
3207;SDS011;1616;52.394;9.756;2023-04-24T08:44:37;7.43;;;4.03;;
3207;SDS011;1616;52.394;9.756;2023-04-24T08:47:04;4.17;;;3.97;;
3207;SDS011;1616;52.394;9.756;2023-04-24T08:49:30;4.90;;;4.50;;
3207;SDS011;1616;52.394;9.756;2023-04-24T08:51:56;3.00;;;2.80;;
3207;SDS011;1616;52.394;9.756;2023-04-24T08:54:22;7.83;;;3.83;;
3207;SDS011;1616;52.394;9.756;2023-04-24T08:56:49;3.43;;;3.23;;
3207;SDS011;1616;52.394;9.756;2023-04-24T08:59:19;3.60;;;3.30;;
3207;SDS011;1616;52.394;9.756;2023-04-24T09:01:47;4.23;;;3.20;;
3207;SDS011;1616;52.394;9.756;2023-04-24T09:04:14;3.10;;;2.80;;
3207;SDS011;1616;52.394;9.756;2023-04-24T09:06:42;2.70;;;2.50;;
3207;SDS011;1616;52.394;9.756;2023-04-24T09:09:09;2.60;;;2.40;;
3207;SDS011;1616;52.394;9.756;2023-04-24T09:11:36;1.70;;;1.60;;
3207;SDS011;1616;52.394;9.756;2023-04-24T09:14:02;6.50;;;2.33;;
3207;SDS011;1616;52.394;9.756;2023-04-24T09:16:29;5.03;;;2.43;;
3207;SDS011;1616;52.394;9.756;2023-04-24T09:18:59;2.07;;;1.97;;
3207;SDS011;1616;52.394;9.756;2023-04-24T09:21:25;2.73;;;2.07;;
3207;SDS011;1616;52.394;9.756;2023-04-24T09:24:02;2.47;;;2.37;;
3207;SDS011;1616;52.394;9.756;2023-04-24T09:26:31;6.07;;;1.90;;
3207;SDS011;1616;52.394;9.756;2023-04-24T09:28:59;2.10;;;2.00;;
3207;SDS011;1616;52.394;9.756;2023-04-24T09:31:27;5.90;;;2.00;;
3207;SDS011;1616;52.394;9.756;2023-04-24T09:34:01;3.13;;;2.47;;
3207;SDS011;1616;52.394;9.756;2023-04-24T09:36:41;3.33;;;1.90;;
3207;SDS011;1616;52.394;9.756;2023-04-24T09:39:08;2.67;;;2.47;;
3207;SDS011;1616;52.394;9.756;2023-04-24T09:44:15;2.90;;;2.40;;
3207;SDS011;1616;52.394;9.756;2023-04-24T09:46:43;2.37;;;2.20;;
3207;SDS011;1616;52.394;9.756;2023-04-24T09:49:12;2.40;;;2.30;;
3207;SDS011;1616;52.394;9.756;2023-04-24T09:51:40;3.23;;;2.17;;
3207;SDS011;1616;52.394;9.756;2023-04-24T09:54:16;2.67;;;2.47;;
3207;SDS011;1616;52.394;9.756;2023-04-24T09:56:44;2.97;;;2.70;;
3207;SDS011;1616;52.394;9.756;2023-04-24T09:59:11;2.60;;;2.50;;
3207;SDS011;1616;52.394;9.756;2023-04-24T10:01:38;2.50;;;2.40;;
3207;SDS011;1616;52.394;9.756;2023-04-24T10:04:14;5.30;;;2.53;;
3207;SDS011;1616;52.394;9.756;2023-04-24T10:06:41;2.23;;;2.13;;
3207;SDS011;1616;52.394;9.756;2023-04-24T10:09:08;2.80;;;2.20;;
3207;SDS011;1616;52.394;9.756;2023-04-24T10:11:37;2.40;;;2.20;;
3207;SDS011;1616;52.394;9.756;2023-04-24T10:14:06;5.80;;;2.03;;
3207;SDS011;1616;52.394;9.756;2023-04-24T10:16:33;1.90;;;1.80;;
3207;SDS011;1616;52.394;9.756;2023-04-24T10:19:00;2.30;;;2.13;;
3207;SDS011;1616;52.394;9.756;2023-04-24T10:21:26;3.40;;;2.67;;
3207;SDS011;1616;52.394;9.756;2023-04-24T10:23:53;4.17;;;2.23;;
3207;SDS011;1616;52.394;9.756;2023-04-24T10:26:19;2.60;;;2.37;;
3207;SDS011;1616;52.394;9.756;2023-04-24T10:28:45;1.87;;;1.77;;
3207;SDS011;1616;52.394;9.756;2023-04-24T10:31:12;2.30;;;2.10;;
3207;SDS011;1616;52.394;9.756;2023-04-24T10:33:42;2.60;;;2.40;;
3207;SDS011;1616;52.394;9.756;2023-04-24T10:36:12;7.13;;;2.17;;
3207;SDS011;1616;52.394;9.756;2023-04-24T10:38:40;1.90;;;1.80;;
3207;SDS011;1616;52.394;9.756;2023-04-24T10:41:09;1.80;;;1.70;;
3207;SDS011;1616;52.394;9.756;2023-04-24T10:43:39;2.47;;;1.80;;
3207;SDS011;1616;52.394;9.756;2023-04-24T10:46:05;2.70;;;1.70;;
3207;SDS011;1616;52.394;9.756;2023-04-24T10:48:32;8.00;;;1.90;;
3207;SDS011;1616;52.394;9.756;2023-04-24T10:50:58;1.73;;;1.63;;
3207;SDS011;1616;52.394;9.756;2023-04-24T10:53:25;2.37;;;1.60;;
3207;SDS011;1616;52.394;9.756;2023-04-24T10:58:38;1.50;;;1.40;;
3207;SDS011;1616;52.394;9.756;2023-04-24T11:01:08;1.87;;;1.77;;
3207;SDS011;1616;52.394;9.756;2023-04-24T11:03:34;1.50;;;1.40;;
3207;SDS011;1616;52.394;9.756;2023-04-24T11:08:28;5.50;;;1.43;;
3207;SDS011;1616;52.394;9.756;2023-04-24T11:13:24;2.90;;;1.50;;
3207;SDS011;1616;52.394;9.756;2023-04-24T11:18:39;1.60;;;1.50;;
3207;SDS011;1616;52.394;9.756;2023-04-24T11:21:11;3.83;;;2.90;;
3207;SDS011;1616;52.394;9.756;2023-04-24T11:23:47;1.40;;;1.30;;
3207;SDS011;1616;52.394;9.756;2023-04-24T11:26:22;1.50;;;1.40;;
3207;SDS011;1616;52.394;9.756;2023-04-24T11:29:05;2.33;;;1.50;;
3207;SDS011;1616;52.394;9.756;2023-04-24T11:31:43;1.97;;;1.30;;
3207;SDS011;1616;52.394;9.756;2023-04-24T11:34:15;1.33;;;1.20;;
3207;SDS011;1616;52.394;9.756;2023-04-24T11:36:45;1.60;;;1.20;;
3207;SDS011;1616;52.394;9.756;2023-04-24T11:39:12;3.50;;;1.50;;
3207;SDS011;1616;52.394;9.756;2023-04-24T11:41:38;1.10;;;1.00;;
3207;SDS011;1616;52.394;9.756;2023-04-24T11:44:05;1.47;;;1.00;;
3207;SDS011;1616;52.394;9.756;2023-04-24T11:46:33;1.17;;;1.00;;
3207;SDS011;1616;52.394;9.756;2023-04-24T11:48:58;1.00;;;0.80;;
3207;SDS011;1616;52.394;9.756;2023-04-24T11:51:25;1.23;;;1.13;;
3207;SDS011;1616;52.394;9.756;2023-04-24T11:53:55;2.33;;;1.20;;
3207;SDS011;1616;52.394;9.756;2023-04-24T11:56:22;1.10;;;0.90;;
3207;SDS011;1616;52.394;9.756;2023-04-24T11:58:48;1.43;;;0.90;;
3207;SDS011;1616;52.394;9.756;2023-04-24T12:01:18;1.80;;;1.10;;
3207;SDS011;1616;52.394;9.756;2023-04-24T12:03:50;3.67;;;1.03;;
3207;SDS011;1616;52.394;9.756;2023-04-24T12:06:25;2.43;;;1.10;;
3207;SDS011;1616;52.394;9.756;2023-04-24T12:08:52;1.63;;;0.90;;
3207;SDS011;1616;52.394;9.756;2023-04-24T12:11:20;2.67;;;1.00;;
3207;SDS011;1616;52.394;9.756;2023-04-24T12:13:45;1.97;;;0.90;;
3207;SDS011;1616;52.394;9.756;2023-04-24T12:16:11;1.30;;;1.00;;
3207;SDS011;1616;52.394;9.756;2023-04-24T12:18:43;0.90;;;0.80;;
3207;SDS011;1616;52.394;9.756;2023-04-24T12:21:18;0.90;;;0.80;;
3207;SDS011;1616;52.394;9.756;2023-04-24T12:23:45;1.63;;;0.90;;
3207;SDS011;1616;52.394;9.756;2023-04-24T12:26:20;1.10;;;0.80;;
3207;SDS011;1616;52.394;9.756;2023-04-24T12:28:47;1.53;;;0.90;;
3207;SDS011;1616;52.394;9.756;2023-04-24T12:31:15;1.00;;;0.80;;
3207;SDS011;1616;52.394;9.756;2023-04-24T12:33:41;1.67;;;0.87;;
3207;SDS011;1616;52.394;9.756;2023-04-24T12:36:09;1.00;;;0.80;;
3207;SDS011;1616;52.394;9.756;2023-04-24T12:38:36;0.90;;;0.80;;
3207;SDS011;1616;52.394;9.756;2023-04-24T12:41:07;1.00;;;0.60;;
3207;SDS011;1616;52.394;9.756;2023-04-24T12:43:34;0.90;;;0.80;;
3207;SDS011;1616;52.394;9.756;2023-04-24T12:46:01;1.10;;;0.90;;
3207;SDS011;1616;52.394;9.756;2023-04-24T12:48:27;0.90;;;0.80;;
3207;SDS011;1616;52.394;9.756;2023-04-24T12:50:53;1.20;;;1.10;;
3207;SDS011;1616;52.394;9.756;2023-04-24T12:53:20;2.93;;;0.93;;
3207;SDS011;1616;52.394;9.756;2023-04-24T12:55:46;2.90;;;0.90;;
3207;SDS011;1616;52.394;9.756;2023-04-24T12:58:17;1.00;;;0.90;;
3207;SDS011;1616;52.394;9.756;2023-04-24T13:00:46;0.90;;;0.80;;
3207;SDS011;1616;52.394;9.756;2023-04-24T13:03:12;1.10;;;0.90;;
3207;SDS011;1616;52.394;9.756;2023-04-24T13:05:38;1.20;;;0.90;;
3207;SDS011;1616;52.394;9.756;2023-04-24T13:08:04;1.00;;;0.90;;
3207;SDS011;1616;52.394;9.756;2023-04-24T13:10:31;1.70;;;1.60;;
3207;SDS011;1616;52.394;9.756;2023-04-24T13:12:57;11.23;;;6.43;;
3207;SDS011;1616;52.394;9.756;2023-04-24T13:15:22;6.60;;;3.93;;
3207;SDS011;1616;52.394;9.756;2023-04-24T13:17:48;3.30;;;2.50;;
3207;SDS011;1616;52.394;9.756;2023-04-24T13:20:14;1.90;;;1.50;;
3207;SDS011;1616;52.394;9.756;2023-04-24T13:22:40;1.10;;;1.00;;
3207;SDS011;1616;52.394;9.756;2023-04-24T13:25:06;2.33;;;1.10;;
3207;SDS011;1616;52.394;9.756;2023-04-24T13:27:32;3.57;;;1.00;;
3207;SDS011;1616;52.394;9.756;2023-04-24T13:29:58;1.30;;;1.00;;
3207;SDS011;1616;52.394;9.756;2023-04-24T13:32:23;1.20;;;1.10;;
3207;SDS011;1616;52.394;9.756;2023-04-24T13:34:50;1.23;;;1.00;;
3207;SDS011;1616;52.394;9.756;2023-04-24T13:37:15;1.10;;;1.00;;
3207;SDS011;1616;52.394;9.756;2023-04-24T13:39:41;1.10;;;1.00;;
3207;SDS011;1616;52.394;9.756;2023-04-24T13:42:06;2.03;;;1.20;;
3207;SDS011;1616;52.394;9.756;2023-04-24T13:44:32;1.30;;;1.00;;
3207;SDS011;1616;52.394;9.756;2023-04-24T13:46:58;5.90;;;0.90;;
3207;SDS011;1616;52.394;9.756;2023-04-24T13:49:24;1.00;;;0.80;;
3207;SDS011;1616;52.394;9.756;2023-04-24T13:51:50;1.00;;;0.90;;
3207;SDS011;1616;52.394;9.756;2023-04-24T13:54:16;0.90;;;0.67;;
3207;SDS011;1616;52.394;9.756;2023-04-24T13:56:42;1.13;;;0.80;;
3207;SDS011;1616;52.394;9.756;2023-04-24T13:59:08;1.10;;;1.00;;
3207;SDS011;1616;52.394;9.756;2023-04-24T14:01:33;1.87;;;0.60;;
3207;SDS011;1616;52.394;9.756;2023-04-24T14:03:59;0.70;;;0.40;;
3207;SDS011;1616;52.394;9.756;2023-04-24T14:06:25;0.80;;;0.43;;
3207;SDS011;1616;52.394;9.756;2023-04-24T14:08:51;1.03;;;0.60;;
3207;SDS011;1616;52.394;9.756;2023-04-24T14:11:17;0.80;;;0.50;;
3207;SDS011;1616;52.394;9.756;2023-04-24T14:13:44;0.90;;;0.70;;
3207;SDS011;1616;52.394;9.756;2023-04-24T14:16:10;0.80;;;0.60;;
3207;SDS011;1616;52.394;9.756;2023-04-24T14:18:36;0.83;;;0.60;;
3207;SDS011;1616;52.394;9.756;2023-04-24T14:21:02;0.90;;;0.70;;
3207;SDS011;1616;52.394;9.756;2023-04-24T14:23:28;0.90;;;0.77;;
3207;SDS011;1616;52.394;9.756;2023-04-24T14:25:54;1.17;;;1.00;;
3207;SDS011;1616;52.394;9.756;2023-04-24T14:28:20;1.30;;;0.90;;
3207;SDS011;1616;52.394;9.756;2023-04-24T14:30:46;3.30;;;1.20;;
3207;SDS011;1616;52.394;9.756;2023-04-24T14:33:13;1.10;;;0.90;;
3207;SDS011;1616;52.394;9.756;2023-04-24T14:35:39;2.80;;;1.27;;
3207;SDS011;1616;52.394;9.756;2023-04-24T14:38:09;2.13;;;1.23;;
3207;SDS011;1616;52.394;9.756;2023-04-24T14:40:35;2.03;;;1.50;;
3207;SDS011;1616;52.394;9.756;2023-04-24T14:43:00;1.60;;;1.50;;
3207;SDS011;1616;52.394;9.756;2023-04-24T14:45:26;1.80;;;1.60;;
3207;SDS011;1616;52.394;9.756;2023-04-24T14:47:52;1.70;;;1.10;;
3207;SDS011;1616;52.394;9.756;2023-04-24T14:50:19;4.23;;;1.30;;
3207;SDS011;1616;52.394;9.756;2023-04-24T14:52:45;6.40;;;1.50;;
3207;SDS011;1616;52.394;9.756;2023-04-24T14:55:11;2.13;;;1.43;;
3207;SDS011;1616;52.394;9.756;2023-04-24T14:57:37;1.87;;;1.50;;
3207;SDS011;1616;52.394;9.756;2023-04-24T15:00:04;7.50;;;1.77;;
3207;SDS011;1616;52.394;9.756;2023-04-24T15:02:33;2.30;;;2.10;;
3207;SDS011;1616;52.394;9.756;2023-04-24T15:04:59;2.00;;;1.80;;
3207;SDS011;1616;52.394;9.756;2023-04-24T15:07:24;6.43;;;1.80;;
3207;SDS011;1616;52.394;9.756;2023-04-24T15:09:50;2.20;;;1.80;;
3207;SDS011;1616;52.394;9.756;2023-04-24T15:12:16;4.53;;;2.37;;
3207;SDS011;1616;52.394;9.756;2023-04-24T15:14:42;2.30;;;1.80;;
3207;SDS011;1616;52.394;9.756;2023-04-24T15:17:08;4.90;;;2.17;;
3207;SDS011;1616;52.394;9.756;2023-04-24T15:19:35;5.00;;;2.30;;
3207;SDS011;1616;52.394;9.756;2023-04-24T15:22:01;2.80;;;2.17;;
3207;SDS011;1616;52.394;9.756;2023-04-24T15:24:26;3.10;;;2.17;;